createdAt,value
2018-07-19T00:01:40.609Z,100472.05
2018-07-19T00:04:09.974Z,100471.95
2018-07-19T00:06:39.264Z,100475.67
2018-07-19T00:09:09.722Z,100471.32
2018-07-19T00:11:39.070Z,100467.00
2018-07-19T00:14:08.362Z,100470.09
2018-07-19T00:16:37.622Z,100469.04
2018-07-19T00:19:07.117Z,100476.56
2018-07-19T00:21:36.480Z,100471.95
2018-07-19T00:24:05.922Z,100477.17
2018-07-19T00:26:35.201Z,100476.91
2018-07-19T00:29:04.530Z,100477.74
2018-07-19T00:31:33.905Z,100483.32
2018-07-19T00:34:03.282Z,100475.91
2018-07-19T00:36:32.694Z,100476.03
2018-07-19T00:39:02.137Z,100474.84
2018-07-19T00:41:31.373Z,100468.88
2018-07-19T00:44:00.694Z,100463.84
2018-07-19T00:46:29.941Z,100468.53
2018-07-19T00:48:59.191Z,100469.19
2018-07-19T00:51:28.898Z,100473.18
2018-07-19T00:53:58.222Z,100470.77
2018-07-19T00:56:27.542Z,100471.20
2018-07-19T00:58:56.815Z,100474.77
2018-07-19T01:01:26.110Z,100470.43
2018-07-19T01:03:55.422Z,100472.84
2018-07-19T01:06:24.771Z,100478.28
2018-07-19T01:08:54.009Z,100477.00
2018-07-19T01:11:23.370Z,100482.13
2018-07-19T01:13:52.690Z,100477.97
2018-07-19T01:16:21.962Z,100486.65
2018-07-19T01:18:51.417Z,100482.27
2018-07-19T01:21:20.683Z,100482.79
2018-07-19T01:23:50.037Z,100482.79
2018-07-19T01:26:19.392Z,100489.19
2018-07-19T01:28:48.706Z,100484.37
2018-07-19T01:31:18.138Z,100488.05
2018-07-19T01:33:47.517Z,100484.09
2018-07-19T01:36:16.925Z,100482.20
2018-07-19T01:38:46.234Z,100480.41
2018-07-19T01:41:26.386Z,100486.38
2018-07-19T01:43:55.697Z,100484.18
2018-07-19T01:46:24.990Z,100480.84
2018-07-19T01:48:54.295Z,100474.79
2018-07-19T01:51:23.541Z,100479.94
2018-07-19T01:53:52.783Z,100472.20
2018-07-19T01:56:22.126Z,100480.67
2018-07-19T01:58:51.391Z,100469.18
2018-07-19T02:01:21.288Z,100473.69
2018-07-19T02:03:50.586Z,100475.13
2018-07-19T02:06:19.904Z,100478.89
2018-07-19T02:08:49.313Z,100478.60
2018-07-19T02:11:18.581Z,100482.76
2018-07-19T02:13:47.922Z,100476.72
2018-07-19T02:16:17.306Z,100482.00
2018-07-19T02:18:46.631Z,100480.13
2018-07-19T02:21:15.902Z,100485.17
2018-07-19T02:23:45.333Z,100475.70
2018-07-19T02:26:14.590Z,100479.02
2018-07-19T02:28:43.910Z,100478.49
2018-07-19T02:31:13.314Z,100470.97
2018-07-19T02:33:42.651Z,100472.06
2018-07-19T02:36:12.006Z,100476.27
2018-07-19T02:38:41.445Z,100477.89
2018-07-19T02:41:10.851Z,100473.15
2018-07-19T02:43:40.151Z,100473.83
2018-07-19T02:46:09.420Z,100475.20
2018-07-19T02:48:38.719Z,100474.89
2018-07-19T02:51:07.976Z,100479.48
2018-07-19T02:53:37.519Z,100470.81
2018-07-19T02:56:06.851Z,100489.70
2018-07-19T02:58:36.150Z,100478.80
2018-07-19T03:01:05.422Z,100481.48
2018-07-19T03:03:34.946Z,100477.77
2018-07-19T03:06:04.827Z,100481.67
2018-07-19T03:08:34.541Z,100478.42
2018-07-19T03:11:04.389Z,100488.37
2018-07-19T03:13:33.787Z,100477.50
2018-07-19T03:16:03.137Z,100480.59
2018-07-19T03:18:32.754Z,100469.64
2018-07-19T03:21:02.002Z,100474.01
2018-07-19T03:23:31.459Z,100471.17
2018-07-19T03:26:00.868Z,100468.38
2018-07-19T03:28:30.105Z,100475.19
2018-07-19T03:30:59.457Z,100472.70
2018-07-19T03:33:28.929Z,100473.61
2018-07-19T03:35:58.208Z,100474.77
2018-07-19T03:38:27.494Z,100472.05
2018-07-19T03:40:56.840Z,100475.91
2018-07-19T03:43:26.190Z,100473.47
2018-07-19T03:45:55.641Z,100480.16
2018-07-19T03:48:24.919Z,100474.82
2018-07-19T03:50:54.240Z,100479.20
2018-07-19T03:53:23.499Z,100482.37
2018-07-19T03:55:52.911Z,100483.80
2018-07-19T03:58:22.282Z,100487.47
2018-07-19T04:00:51.609Z,100483.17
2018-07-19T04:03:20.918Z,100485.24
2018-07-19T04:05:50.322Z,100492.70
2018-07-19T04:08:19.702Z,100491.58
2018-07-19T04:10:50.405Z,100487.17
2018-07-19T04:13:19.842Z,100489.31
2018-07-19T04:15:49.261Z,100490.83
2018-07-19T04:18:18.614Z,100492.88
2018-07-19T04:20:48.385Z,100491.13
2018-07-19T04:23:17.633Z,100490.73
2018-07-19T04:25:47.007Z,100492.28
2018-07-19T04:28:16.346Z,100486.75
2018-07-19T04:30:45.720Z,100496.30
2018-07-19T04:33:14.964Z,100493.17
2018-07-19T04:35:44.407Z,100496.84
2018-07-19T04:38:13.652Z,100498.53
2018-07-19T04:40:42.911Z,100497.88
2018-07-19T04:43:12.262Z,100492.26
2018-07-19T04:45:41.617Z,100487.22
2018-07-19T04:48:10.912Z,100491.15
2018-07-19T04:50:40.307Z,100483.59
2018-07-19T04:53:09.557Z,100493.30
2018-07-19T04:55:38.806Z,100493.64
2018-07-19T04:58:08.194Z,100495.88
2018-07-19T05:00:37.646Z,100486.56
2018-07-19T05:03:07.062Z,100500.27
2018-07-19T05:05:36.501Z,100499.89
2018-07-19T05:08:05.874Z,100499.11
2018-07-19T05:10:35.203Z,100501.98
2018-07-19T05:13:04.458Z,100502.70
2018-07-19T05:15:33.711Z,100500.06
2018-07-19T05:18:03.173Z,100507.09
2018-07-19T05:20:32.522Z,100505.92
2018-07-19T05:23:01.987Z,100501.63
2018-07-19T05:25:31.324Z,100504.52
2018-07-19T05:28:00.602Z,100503.14
2018-07-19T05:30:30.649Z,100503.61
2018-07-19T05:33:04.540Z,100498.06
2018-07-19T05:35:33.994Z,100493.23
2018-07-19T05:38:03.265Z,100501.16
2018-07-19T05:40:32.704Z,100499.02
2018-07-19T05:43:02.171Z,100503.89
2018-07-19T05:45:31.473Z,100505.59
2018-07-19T05:48:00.767Z,100510.31
2018-07-19T05:50:29.907Z,100507.77
2018-07-19T05:52:59.228Z,100505.37
2018-07-19T05:55:28.474Z,100509.49
2018-07-19T05:57:57.738Z,100506.94
2018-07-19T06:00:27.073Z,100504.50
2018-07-19T06:02:56.351Z,100508.44
2018-07-19T06:05:25.702Z,100510.63
2018-07-19T06:07:54.959Z,100514.78
2018-07-19T06:10:24.345Z,100511.80
2018-07-19T06:12:55.151Z,100512.19
2018-07-19T06:15:24.401Z,100509.97
2018-07-19T06:17:53.686Z,100512.45
2018-07-19T06:20:23.122Z,100515.30
2018-07-19T06:22:52.499Z,100517.70
2018-07-19T06:25:21.825Z,100519.25
2018-07-19T06:27:51.071Z,100522.88
2018-07-19T06:30:20.434Z,100524.23
2018-07-19T06:32:49.883Z,100525.98
2018-07-19T06:35:19.141Z,100527.59
2018-07-19T06:37:48.209Z,100529.61
2018-07-19T06:40:17.671Z,100525.05
2018-07-19T06:42:46.877Z,100525.41
2018-07-19T06:45:16.403Z,100536.73
2018-07-19T06:47:45.691Z,100530.11
2018-07-19T06:50:15.192Z,100528.89
2018-07-19T06:52:44.557Z,100540.19
2018-07-19T06:55:13.809Z,100538.37
2018-07-19T06:57:43.353Z,100544.15
2018-07-19T07:00:12.793Z,100539.53
2018-07-19T07:02:42.214Z,100540.70
2018-07-19T07:05:11.549Z,100531.41
2018-07-19T07:07:40.924Z,100537.17
2018-07-19T07:10:10.403Z,100539.24
2018-07-19T07:12:40.266Z,100542.06
2018-07-19T07:15:10.719Z,100541.36
2018-07-19T07:17:40.802Z,100537.08
2018-07-19T07:20:10.690Z,100545.28
2018-07-19T07:22:39.874Z,100548.53
2018-07-19T07:25:09.303Z,100554.47
2018-07-19T07:27:38.480Z,100550.14
2018-07-19T07:30:07.705Z,100545.27
2018-07-19T07:32:37.144Z,100553.70
2018-07-19T07:35:07.162Z,100553.93
2018-07-19T07:37:37.373Z,100556.58
2018-07-19T07:40:06.825Z,100550.50
2018-07-19T07:42:36.161Z,100549.07
2018-07-19T07:45:05.635Z,100555.31
2018-07-19T07:47:35.020Z,100552.06
2018-07-19T07:50:04.261Z,100556.48
2018-07-19T07:52:34.213Z,100561.52
2018-07-19T07:55:03.470Z,100554.00
2018-07-19T07:57:32.778Z,100550.59
2018-07-19T08:00:02.078Z,100555.55
2018-07-19T08:02:31.530Z,100541.64
2018-07-19T08:05:00.770Z,100543.35
2018-07-19T08:07:30.103Z,100545.27
2018-07-19T08:09:59.370Z,100543.44
2018-07-19T08:12:28.875Z,100547.96
2018-07-19T08:14:58.192Z,100544.70
2018-07-19T08:17:27.714Z,100540.06
2018-07-19T08:19:57.076Z,100541.64
2018-07-19T08:22:26.669Z,100542.20
2018-07-19T08:24:56.018Z,100533.96
2018-07-19T08:27:25.334Z,100534.83
2018-07-19T08:29:54.805Z,100537.63
2018-07-19T08:32:24.341Z,100533.28
2018-07-19T08:34:53.987Z,100533.55
2018-07-19T08:37:23.580Z,100538.27
2018-07-19T08:39:53.048Z,100530.55
2018-07-19T08:42:22.582Z,100525.58
2018-07-19T08:44:52.915Z,100526.50
2018-07-19T08:47:22.634Z,100521.90
2018-07-19T08:49:52.554Z,100520.92
2018-07-19T08:52:22.719Z,100520.73
2018-07-19T08:54:52.413Z,100528.43
2018-07-19T08:57:21.739Z,100524.45
2018-07-19T08:59:51.095Z,100521.70
2018-07-19T09:02:20.991Z,100524.31
2018-07-19T09:04:50.451Z,100521.93
2018-07-19T09:07:19.805Z,100511.83
2018-07-19T09:09:49.147Z,100521.80
2018-07-19T09:12:18.492Z,100512.66
2018-07-19T09:14:47.842Z,100511.14
2018-07-19T09:17:17.098Z,100516.05
2018-07-19T09:19:46.494Z,100521.98
2018-07-19T09:22:15.855Z,100518.08
2018-07-19T09:24:45.121Z,100510.47
2018-07-19T09:27:14.512Z,100511.97
2018-07-19T09:29:43.870Z,100506.81
2018-07-19T09:32:13.290Z,100508.65
2018-07-19T09:34:42.669Z,100502.80
2018-07-19T09:37:12.114Z,100500.41
2018-07-19T09:39:41.875Z,100502.44
2018-07-19T09:42:11.314Z,100499.61
2018-07-19T09:44:40.730Z,100495.14
2018-07-19T09:47:09.990Z,100493.41
2018-07-19T09:49:39.303Z,100496.52
2018-07-19T09:52:08.701Z,100498.92
2018-07-19T09:54:52.984Z,100496.86
2018-07-19T09:57:22.730Z,100493.45
2018-07-19T09:59:52.180Z,100491.44
2018-07-19T10:02:22.093Z,100489.43
2018-07-19T10:04:51.958Z,100491.57
2018-07-19T10:07:21.694Z,100488.53
2018-07-19T10:09:51.385Z,100482.25
2018-07-19T10:12:20.841Z,100477.48
2018-07-19T10:14:50.304Z,100480.57
2018-07-19T10:17:19.815Z,100484.42
2018-07-19T10:19:49.181Z,100474.67
2018-07-19T10:22:18.539Z,100482.98
2018-07-19T10:24:47.906Z,100476.42
2018-07-19T10:27:17.270Z,100477.05
2018-07-19T10:29:46.558Z,100474.69
2018-07-19T10:32:15.924Z,100477.87
2018-07-19T10:34:45.130Z,100488.66
2018-07-19T10:37:14.461Z,100474.76
2018-07-19T10:39:43.914Z,100475.42
2018-07-19T10:42:13.264Z,100474.63
2018-07-19T10:44:42.594Z,100466.29
2018-07-19T10:47:11.837Z,100464.37
2018-07-19T10:49:41.209Z,100464.01
2018-07-19T10:52:10.564Z,100461.61
2018-07-19T10:54:39.803Z,100467.02
2018-07-19T10:57:09.133Z,100467.16
2018-07-19T10:59:38.457Z,100459.86
2018-07-19T11:02:08.614Z,100456.20
2018-07-19T11:04:37.882Z,100461.53
2018-07-19T11:07:07.187Z,100460.80
2018-07-19T11:09:36.502Z,100454.25
2018-07-19T11:12:05.762Z,100447.05
2018-07-19T11:14:35.036Z,100455.73
2018-07-19T11:17:04.417Z,100439.59
2018-07-19T11:19:34.112Z,100441.95
2018-07-19T11:22:03.494Z,100443.66
2018-07-19T11:24:32.777Z,100435.66
2018-07-19T11:27:02.103Z,100445.29
2018-07-19T11:29:31.344Z,100431.98
2018-07-19T11:32:00.625Z,100444.78
2018-07-19T11:34:29.811Z,100435.52
2018-07-19T11:36:59.209Z,100436.87
2018-07-19T11:39:28.565Z,100430.70
2018-07-19T11:41:57.761Z,100424.88
2018-07-19T11:44:27.121Z,100425.62
2018-07-19T11:46:56.269Z,100422.72
2018-07-19T11:49:25.520Z,100419.59
2018-07-19T11:51:54.878Z,100418.80
2018-07-19T11:54:24.356Z,100408.54
2018-07-19T11:56:53.487Z,100416.40
2018-07-19T11:59:22.822Z,100408.05
2018-07-19T12:01:51.854Z,100414.31
2018-07-19T12:04:21.663Z,100410.66
2018-07-19T12:06:50.685Z,100404.25
2018-07-19T12:09:19.690Z,100404.02
2018-07-19T12:11:48.643Z,100392.41
2018-07-19T12:14:17.652Z,100396.39
2018-07-19T12:16:46.986Z,100399.59
2018-07-19T12:19:16.421Z,100400.70
2018-07-19T12:21:45.674Z,100393.81
2018-07-19T12:24:14.943Z,100388.20
2018-07-19T12:26:44.089Z,100389.64
2018-07-19T12:29:13.118Z,100389.87
2018-07-19T12:31:42.150Z,100386.70
2018-07-19T12:34:11.303Z,100391.61
2018-07-19T12:36:40.740Z,100384.66
2018-07-19T12:39:11.366Z,100379.95
2018-07-19T12:41:40.793Z,100377.20
2018-07-19T12:44:10.410Z,100383.38
2018-07-19T12:46:40.216Z,100387.47
2018-07-19T12:49:09.656Z,100384.59
2018-07-19T12:51:38.921Z,100386.39
2018-07-19T12:54:08.252Z,100383.61
2018-07-19T12:56:37.690Z,100382.20
2018-07-19T12:59:06.836Z,100381.19
2018-07-19T13:01:36.090Z,100378.70
2018-07-19T13:04:05.331Z,100378.89
2018-07-19T13:06:34.642Z,100374.20
2018-07-19T13:09:04.408Z,100375.17
2018-07-19T13:11:33.632Z,100378.08
2018-07-19T13:14:03.045Z,100366.11
2018-07-19T13:16:32.437Z,100368.16
2018-07-19T13:19:01.857Z,100371.88
2018-07-19T13:21:31.265Z,100370.09
2018-07-19T13:24:00.591Z,100366.30
2018-07-19T13:26:29.802Z,100361.42
2018-07-19T13:28:59.266Z,100363.51
2018-07-19T13:31:28.655Z,100365.25
2018-07-19T13:33:58.583Z,100357.98
2018-07-19T13:36:28.245Z,100349.94
2018-07-19T13:38:57.695Z,100354.64
2018-07-19T13:41:27.243Z,100353.52
2018-07-19T13:43:57.908Z,100343.20
2018-07-19T13:46:27.206Z,100347.06
2018-07-19T13:48:56.632Z,100344.70
2018-07-19T13:51:26.003Z,100339.08
2018-07-19T13:54:17.296Z,100336.95
2018-07-19T13:56:46.868Z,100335.09
2018-07-19T13:59:16.734Z,100336.58
2018-07-19T14:01:45.925Z,100330.95
2018-07-19T14:04:15.180Z,100326.14
2018-07-19T14:06:44.708Z,100326.70
2018-07-19T14:09:15.485Z,100322.43
2018-07-19T14:11:45.106Z,100315.63
2018-07-19T14:14:14.622Z,100319.58
2018-07-19T14:16:44.192Z,100307.09
2018-07-19T14:19:13.725Z,100306.97
2018-07-19T14:21:42.953Z,100309.23
2018-07-19T14:24:12.225Z,100308.41
2018-07-19T14:26:41.613Z,100298.45
2018-07-19T14:29:10.849Z,100293.98
2018-07-19T14:31:40.219Z,100306.53
2018-07-19T14:34:09.532Z,100298.10
2018-07-19T14:36:38.907Z,100298.30
2018-07-19T14:39:11.622Z,100298.17
2018-07-19T14:41:40.896Z,100304.75
2018-07-19T14:44:10.646Z,100300.62
2018-07-19T14:46:40.448Z,100302.95
2018-07-19T14:49:09.814Z,100296.14
2018-07-19T14:51:39.058Z,100291.45
2018-07-19T14:54:08.366Z,100290.14
2018-07-19T14:56:37.767Z,100289.04
2018-07-19T14:59:07.104Z,100287.30
2018-07-19T15:01:36.354Z,100288.05
2018-07-19T15:04:05.762Z,100279.06
2018-07-19T15:06:35.202Z,100283.79
2018-07-19T15:09:06.002Z,100281.52
2018-07-19T15:11:35.293Z,100275.50
2018-07-19T15:14:04.506Z,100269.81
2018-07-19T15:16:33.740Z,100266.70
2018-07-19T15:19:03.054Z,100267.67
2018-07-19T15:21:32.316Z,100263.87
2018-07-19T15:24:01.695Z,100264.16
2018-07-19T15:26:31.155Z,100262.73
2018-07-19T15:29:00.474Z,100263.50
2018-07-19T15:31:29.898Z,100257.56
2018-07-19T15:33:59.244Z,100258.12
2018-07-19T15:36:28.518Z,100256.43
2018-07-19T15:38:57.774Z,100254.03
2018-07-19T15:41:27.110Z,100254.09
2018-07-19T15:43:56.370Z,100251.47
2018-07-19T15:46:25.729Z,100258.28
2018-07-19T15:48:55.015Z,100256.66
2018-07-19T15:51:24.427Z,100257.40
2018-07-19T15:53:53.680Z,100253.63
2018-07-19T15:56:22.937Z,100247.79
2018-07-19T15:58:52.391Z,100239.22
2018-07-19T16:01:21.635Z,100236.06
2018-07-19T16:03:50.828Z,100232.11
2018-07-19T16:06:20.177Z,100236.14
2018-07-19T16:08:49.390Z,100232.05
2018-07-19T16:11:20.097Z,100226.06
2018-07-19T16:13:49.520Z,100217.94
2018-07-19T16:16:19.354Z,100220.75
2018-07-19T16:18:48.726Z,100220.05
2018-07-19T16:21:18.104Z,100221.11
2018-07-19T16:23:47.441Z,100218.59
2018-07-19T16:26:16.828Z,100218.09
2018-07-19T16:28:45.937Z,100211.88
2018-07-19T16:31:15.286Z,100208.06
2018-07-19T16:33:44.554Z,100205.16
2018-07-19T16:36:14.042Z,100204.38
2018-07-19T16:38:43.327Z,100210.53
2018-07-19T16:41:12.385Z,100210.07
2018-07-19T16:43:41.671Z,100202.35
2018-07-19T16:46:11.226Z,100199.59
2018-07-19T16:48:40.755Z,100200.97
2018-07-19T16:51:10.325Z,100197.89
2018-07-19T16:53:39.835Z,100193.50
2018-07-19T16:56:09.373Z,100193.63
2018-07-19T16:58:39.022Z,100196.69
2018-07-19T17:01:09.035Z,100198.62
2018-07-19T17:03:38.592Z,100194.48
2018-07-19T17:06:07.755Z,100189.16
2018-07-19T17:08:36.996Z,100188.53
2018-07-19T17:11:06.222Z,100191.56
2018-07-19T17:13:35.514Z,100189.95
2018-07-19T17:16:04.853Z,100188.80
2018-07-19T17:18:34.337Z,100187.36
2018-07-19T17:21:03.796Z,100195.59
2018-07-19T17:23:33.143Z,100192.78
2018-07-19T17:26:02.580Z,100188.27
2018-07-19T17:28:32.098Z,100194.08
2018-07-19T17:31:01.733Z,100187.66
2018-07-19T17:33:30.958Z,100191.97
2018-07-19T17:36:00.354Z,100185.77
2018-07-19T17:38:29.643Z,100188.20
2018-07-19T17:40:58.866Z,100187.72
2018-07-19T17:43:28.163Z,100182.80
2018-07-19T17:45:57.462Z,100186.37
2018-07-19T17:48:26.726Z,100187.75
2018-07-19T17:50:55.976Z,100183.78
2018-07-19T17:53:25.243Z,100179.48
2018-07-19T17:55:54.662Z,100177.31
2018-07-19T17:58:23.993Z,100180.31
2018-07-19T18:00:53.389Z,100184.47
2018-07-19T18:03:22.532Z,100183.61
2018-07-19T18:05:52.104Z,100179.50
2018-07-19T18:08:22.022Z,100181.14
2018-07-19T18:10:51.597Z,100182.26
2018-07-19T18:13:21.117Z,100183.37
2018-07-19T18:15:50.581Z,100183.35
2018-07-19T18:18:20.006Z,100187.12
2018-07-19T18:20:49.442Z,100181.55
2018-07-19T18:23:18.731Z,100174.59
2018-07-19T18:25:47.950Z,100178.83
2018-07-19T18:28:17.346Z,100174.36
2018-07-19T18:30:46.602Z,100171.33
2018-07-19T18:33:16.027Z,100182.09
2018-07-19T18:35:45.272Z,100184.81
2018-07-19T18:38:14.540Z,100183.64
2018-07-19T18:40:43.766Z,100190.53
2018-07-19T18:43:12.994Z,100185.59
2018-07-19T18:45:42.212Z,100191.90
2018-07-19T18:48:11.509Z,100188.20
2018-07-19T18:50:40.666Z,100192.46
2018-07-19T18:53:10.024Z,100189.09
2018-07-19T18:55:39.354Z,100190.81
2018-07-19T18:58:08.841Z,100182.60
2018-07-19T19:00:38.069Z,100188.63
2018-07-19T19:03:07.551Z,100196.43
2018-07-19T19:05:36.817Z,100193.92
2018-07-19T19:08:06.282Z,100193.18
2018-07-19T19:10:35.723Z,100196.74
2018-07-19T19:13:05.039Z,100198.30
2018-07-19T19:15:34.335Z,100201.27
2018-07-19T19:18:03.971Z,100199.82
2018-07-19T19:20:32.921Z,100198.02
2018-07-19T19:23:02.246Z,100206.82
2018-07-19T19:25:31.194Z,100205.38
2018-07-19T19:28:00.423Z,100216.86
2018-07-19T19:30:29.740Z,100211.31
2018-07-19T19:32:59.125Z,100215.39
2018-07-19T19:35:28.572Z,100222.75
2018-07-19T19:37:58.050Z,100224.00
2018-07-19T19:40:27.470Z,100223.61
2018-07-19T19:42:56.771Z,100229.31
2018-07-19T19:45:25.997Z,100224.94
2018-07-19T19:47:55.419Z,100225.50
2018-07-19T19:50:24.739Z,100229.27
2018-07-19T19:52:54.046Z,100223.37
2018-07-19T19:55:23.401Z,100226.74
2018-07-19T19:57:52.742Z,100225.52
2018-07-19T20:00:22.019Z,100229.34
2018-07-19T20:02:51.340Z,100229.63
2018-07-19T20:05:20.606Z,100229.98
2018-07-19T20:07:50.179Z,100232.38
2018-07-19T20:10:19.386Z,100227.47
2018-07-19T20:12:48.746Z,100231.86
2018-07-19T20:15:18.042Z,100232.21
2018-07-19T20:17:47.413Z,100233.91
2018-07-19T20:20:16.637Z,100233.91
2018-07-19T20:22:45.759Z,100240.36
2018-07-19T20:25:15.397Z,100240.53
2018-07-19T20:27:44.858Z,100243.56
2018-07-19T20:30:14.091Z,100244.78
2018-07-19T20:32:43.478Z,100242.19
2018-07-19T20:35:12.766Z,100242.12
2018-07-19T20:37:42.078Z,100244.09
2018-07-19T20:40:11.267Z,100246.47
2018-07-19T20:42:40.722Z,100246.87
2018-07-19T20:45:09.820Z,100250.76
2018-07-19T20:47:38.971Z,100253.92
2018-07-19T20:50:07.935Z,100251.06
2018-07-19T20:52:36.938Z,100254.95
2018-07-19T20:55:05.907Z,100250.59
2018-07-19T20:57:35.354Z,100244.00
2018-07-19T21:00:04.638Z,100244.80
2018-07-19T21:02:33.662Z,100243.58
2018-07-19T21:05:02.949Z,100236.70
2018-07-19T21:07:32.249Z,100240.99
2018-07-19T21:10:01.605Z,100234.94
2018-07-19T21:12:30.872Z,100238.19
2018-07-19T21:15:00.150Z,100249.72
2018-07-19T21:17:29.554Z,100243.66
2018-07-19T21:19:59.253Z,100239.73
2018-07-19T21:22:28.614Z,100240.53
2018-07-19T21:24:57.940Z,100240.97
2018-07-19T21:27:27.172Z,100245.97
2018-07-19T21:29:56.571Z,100234.63
2018-07-19T21:32:25.747Z,100234.80
2018-07-19T21:34:55.480Z,100240.10
2018-07-19T21:37:25.174Z,100236.61
2018-07-19T21:39:54.578Z,100233.77
2018-07-19T21:42:23.846Z,100239.52
2018-07-19T21:44:53.189Z,100234.55
2018-07-19T21:47:22.549Z,100241.34
2018-07-19T21:49:51.890Z,100241.48
2018-07-19T21:52:21.270Z,100241.67
2018-07-19T21:54:50.599Z,100240.00
2018-07-19T21:57:19.851Z,100243.96
2018-07-19T21:59:49.000Z,100241.96
2018-07-19T22:02:18.259Z,100241.58
2018-07-19T22:04:47.490Z,100244.39
2018-07-19T22:07:16.663Z,100247.72
2018-07-19T22:09:45.983Z,100243.91
2018-07-19T22:12:15.251Z,100249.38
2018-07-19T22:14:44.482Z,100243.62
2018-07-19T22:17:13.752Z,100246.30
2018-07-19T22:19:43.103Z,100246.84
2018-07-19T22:22:12.347Z,100240.95
2018-07-19T22:24:41.590Z,100244.16
2018-07-19T22:27:10.850Z,100241.63
2018-07-19T22:29:40.176Z,100239.05
2018-07-19T22:32:09.447Z,100242.80
2018-07-19T22:34:38.669Z,100246.25
2018-07-19T22:37:08.174Z,100243.03
2018-07-19T22:39:38.214Z,100243.57
2018-07-19T22:42:07.486Z,100251.77
2018-07-19T22:44:37.071Z,100244.55
2018-07-19T22:47:06.283Z,100252.39
2018-07-19T22:49:35.632Z,100246.98
2018-07-19T22:52:04.866Z,100250.11
2018-07-19T22:54:34.241Z,100253.02
2018-07-19T22:57:03.471Z,100255.74
2018-07-19T22:59:32.826Z,100249.22
2018-07-19T23:02:02.114Z,100252.39
2018-07-19T23:04:31.470Z,100249.89
2018-07-19T23:07:00.677Z,100245.15
2018-07-19T23:09:29.925Z,100248.95
2018-07-19T23:11:59.206Z,100245.62
2018-07-19T23:14:28.619Z,100249.27
2018-07-19T23:16:57.886Z,100249.45
2018-07-19T23:19:27.115Z,100244.76
2018-07-19T23:21:56.489Z,100242.50
2018-07-19T23:24:25.723Z,100243.98
2018-07-19T23:26:54.758Z,100243.69
2018-07-19T23:29:23.880Z,100235.20
2018-07-19T23:31:52.922Z,100238.75
2018-07-19T23:34:21.978Z,100236.58
2018-07-19T23:36:54.542Z,100234.36
2018-07-19T23:39:31.465Z,100236.63
2018-07-19T23:42:20.119Z,100231.23
2018-07-19T23:45:08.421Z,100231.64
2018-07-19T23:47:39.577Z,100230.50
2018-07-19T23:50:08.911Z,100235.95
2018-07-19T23:52:38.694Z,100231.00
2018-07-19T23:55:08.393Z,100219.67
2018-07-19T23:57:37.699Z,100224.20
